createdAt,value
2018-03-31T11:51:46.477Z,5.60
2018-03-31T12:36:13.500Z,8.40
2018-03-31T12:37:13.467Z,9.50
2018-03-31T14:19:24.226Z,8.60
2018-03-31T14:20:11.844Z,7.40
2018-03-31T14:21:11.883Z,8.20
2018-03-31T14:22:11.849Z,8.00
2018-03-31T14:23:11.841Z,7.00
2018-03-31T14:24:11.846Z,7.70
2018-03-31T14:51:13.033Z,7.60
2018-03-31T14:52:12.003Z,6.20
2018-03-31T14:53:11.983Z,9.10
2018-03-31T17:39:46.018Z,10.40
2018-03-31T18:45:51.041Z,11.70
2018-03-31T18:46:19.017Z,9.00
2018-03-31T18:47:19.012Z,10.10
2018-03-31T19:00:57.377Z,10.60
2018-03-31T19:01:51.477Z,12.50
2018-03-31T19:02:51.488Z,8.90
2018-03-31T19:16:33.349Z,7.00
2018-03-31T19:17:05.633Z,7.90
2018-03-31T21:03:00.838Z,7.10
2018-03-31T21:04:00.987Z,8.00
2018-03-31T21:05:00.917Z,9.50
2018-03-31T21:06:21.859Z,6.60
2018-03-31T21:07:00.895Z,7.80
2018-03-31T21:08:01.077Z,9.20
2018-03-31T21:09:00.844Z,10.60
2018-03-31T21:10:00.735Z,12.50
2018-03-31T21:39:28.691Z,7.50
2018-03-31T21:40:27.678Z,10.30
2018-03-31T22:12:58.005Z,13.50
2018-03-31T22:13:19.378Z,12.50
2018-03-31T22:14:19.363Z,14.30
2018-03-31T22:15:19.370Z,13.40
2018-03-31T22:16:19.366Z,11.90
2018-03-31T22:17:40.496Z,5.80
2018-03-31T22:18:19.368Z,6.80
2018-03-31T22:19:19.357Z,9.50
2018-03-31T22:20:19.343Z,12.20
2018-03-31T22:21:19.330Z,12.80
2018-03-31T22:25:24.246Z,12.20
2018-03-31T22:26:22.665Z,7.90
2018-03-31T22:30:37.559Z,5.50
2018-03-31T22:31:26.887Z,9.90
2018-03-31T22:32:53.291Z,13.00
2018-03-31T22:33:26.874Z,9.40
2018-03-31T22:34:26.878Z,13.20
2018-03-31T22:35:27.131Z,10.40
2018-03-31T22:36:26.877Z,10.50
2018-03-31T22:37:26.879Z,8.60
2018-03-31T22:38:48.006Z,10.50
2018-03-31T22:39:26.866Z,9.50
2018-03-31T22:40:26.864Z,12.80
2018-03-31T22:41:26.858Z,14.10
2018-03-31T22:42:26.886Z,10.70
2018-03-31T22:43:55.504Z,8.20
2018-03-31T22:44:26.842Z,6.70
2018-03-31T22:45:26.859Z,8.80
2018-03-31T22:46:26.832Z,8.00
2018-03-31T22:47:26.833Z,9.50
2018-03-31T22:48:48.007Z,12.30
2018-03-31T22:49:26.826Z,9.00
2018-03-31T22:57:44.637Z,7.20
2018-03-31T22:58:12.998Z,9.30
2018-03-31T22:59:12.983Z,6.60
2018-03-31T23:00:13.011Z,7.80
2018-03-31T23:01:12.995Z,7.60
2018-03-31T23:02:12.984Z,10.00
2018-03-31T23:03:16.111Z,7.70
2018-03-31T23:04:12.973Z,9.00
2018-03-31T23:05:12.965Z,6.00
2018-03-31T23:06:12.980Z,7.80
2018-03-31T23:07:12.965Z,7.40
2018-03-31T23:08:13.097Z,7.20
2018-03-31T23:09:12.968Z,6.60
2018-03-31T23:10:12.964Z,9.00
2018-03-31T23:11:12.950Z,6.90
2018-03-31T23:12:12.956Z,8.50
2018-03-31T23:13:52.118Z,8.00
2018-03-31T23:14:12.926Z,7.50
2018-03-31T23:15:12.938Z,8.50
2018-03-31T23:16:12.918Z,11.80
2018-03-31T23:17:13.082Z,10.60
2018-03-31T23:18:12.928Z,12.50
2018-03-31T23:19:27.118Z,17.10
2018-03-31T23:20:12.920Z,14.50
2018-03-31T23:21:12.926Z,12.50
2018-03-31T23:22:12.900Z,15.60
2018-03-31T23:23:12.887Z,15.70
